Time;durP1;ratioP1;P1;durP2;ratioP2;P2;SDS_P1;SDS_P2;PMS_P1;PMS_P2;Temp;Humidity;BMP_temperature;BMP_pressure;BME280_temperature;BME280_humidity;BME280_pressure;Samples;Min_cycle;Max_cycle;Signal;HPM_P1;HPM_P2
2022/11/29 00:01:33;;;;;;;17.37;11.23;;;8.50;99.90;;;;;;5040532;28;20215;-55
2022/11/29 00:04:01;;;;;;;19.60;12.17;;;8.50;99.90;;;;;;5040652;28;20692;-56
2022/11/29 00:06:30;;;;;;;22.43;13.53;;;8.40;99.90;;;;;;5039106;28;20293;-56
2022/11/29 00:09:00;;;;;;;20.60;12.67;;;8.50;99.90;;;;;;5039491;28;20203;-55
2022/11/29 00:14:18;;;;;;;18.97;12.10;;;8.50;99.90;;;;;;5038841;28;20199;-55
2022/11/29 00:16:52;;;;;;;16.97;12.07;;;8.40;99.90;;;;;;5041030;28;20260;-55
2022/11/29 00:19:20;;;;;;;16.80;10.40;;;8.40;99.90;;;;;;5056803;28;20283;-55
2022/11/29 00:21:47;;;;;;;17.43;11.50;;;8.30;99.90;;;;;;5041845;28;20679;-57
2022/11/29 00:24:14;;;;;;;19.33;11.17;;;8.30;99.90;;;;;;5059900;28;20473;-55
2022/11/29 00:26:41;;;;;;;21.13;12.10;;;8.40;99.90;;;;;;5060200;28;20199;-55
2022/11/29 00:29:10;;;;;;;18.23;12.93;;;8.50;99.90;;;;;;5058111;28;20222;-56
2022/11/29 00:31:39;;;;;;;20.17;12.47;;;8.50;99.90;;;;;;5056426;28;20678;-56
2022/11/29 00:34:06;;;;;;;20.10;12.00;;;8.60;99.90;;;;;;5059033;28;20289;-56
2022/11/29 00:36:34;;;;;;;20.80;12.70;;;8.60;99.90;;;;;;5057087;28;20201;-57
2022/11/29 00:39:02;;;;;;;19.27;12.10;;;8.50;99.90;;;;;;5054850;28;20203;-56
2022/11/29 00:41:29;;;;;;;19.57;12.03;;;8.50;99.90;;;;;;5058720;28;20724;-57
2022/11/29 00:43:56;;;;;;;16.17;12.07;;;8.50;99.90;;;;;;5058572;28;20260;-56
2022/11/29 00:46:24;;;;;;;16.03;11.20;;;8.40;99.90;;;;;;5059575;28;20582;-56
2022/11/29 00:48:50;;;;;;;15.40;11.00;;;8.10;99.90;;;;;;5057438;28;20274;-55
2022/11/29 00:51:17;;;;;;;14.53;11.43;;;8.10;99.90;;;;;;5057166;28;20253;-56
2022/11/29 00:53:44;;;;;;;14.40;11.23;;;8.20;99.90;;;;;;5058953;28;20298;-56
2022/11/29 00:56:11;;;;;;;15.03;10.40;;;8.30;99.90;;;;;;5058870;28;20809;-55
2022/11/29 00:58:38;;;;;;;17.37;11.27;;;8.30;99.90;;;;;;5054234;28;20290;-56
2022/11/29 01:01:05;;;;;;;16.33;11.63;;;8.20;99.90;;;;;;5058943;28;20731;-56
2022/11/29 01:03:33;;;;;;;12.67;10.13;;;8.30;99.90;;;;;;5058720;28;20207;-60
2022/11/29 01:06:03;;;;;;;14.03;10.23;;;8.30;99.90;;;;;;5057683;28;20229;-56
2022/11/29 01:08:30;;;;;;;14.30;10.30;;;8.30;99.90;;;;;;5059012;28;20211;-56
2022/11/29 01:11:07;;;;;;;16.57;11.90;;;8.20;99.90;;;;;;5072712;28;20310;-55
2022/11/29 01:13:34;;;;;;;15.80;10.47;;;8.30;99.90;;;;;;5057409;28;20209;-55
2022/11/29 01:16:02;;;;;;;15.07;9.00;;;8.30;99.90;;;;;;5055344;28;20233;-56
2022/11/29 01:18:29;;;;;;;16.63;10.67;;;8.20;99.90;;;;;;5044319;28;20230;-55
2022/11/29 01:21:16;;;;;;;21.10;11.73;;;8.10;99.90;;;;;;5031772;28;20234;-56
2022/11/29 01:23:44;;;;;;;19.83;11.97;;;8.20;99.90;;;;;;5037868;28;20305;-56
2022/11/29 01:26:14;;;;;;;20.97;13.37;;;8.20;99.90;;;;;;5039397;28;20217;-55
2022/11/29 01:28:41;;;;;;;21.97;13.10;;;8.10;99.90;;;;;;5038130;28;20560;-56
2022/11/29 01:31:12;;;;;;;20.60;13.20;;;8.10;99.90;;;;;;5038609;28;20665;-55
2022/11/29 01:33:40;;;;;;;20.13;13.37;;;8.20;99.90;;;;;;5033153;28;20215;-55
2022/11/29 01:36:08;;;;;;;21.50;13.53;;;8.20;99.90;;;;;;5019768;28;20231;-56
2022/11/29 01:38:35;;;;;;;22.17;12.50;;;8.20;99.90;;;;;;5038719;28;20205;-56
2022/11/29 01:41:10;;;;;;;23.13;12.30;;;8.10;99.90;;;;;;5032313;28;20241;-55
2022/11/29 01:43:57;;;;;;;21.73;12.80;;;8.10;99.90;;;;;;5034587;28;20689;-56
2022/11/29 01:46:25;;;;;;;20.97;11.80;;;8.10;99.90;;;;;;5036134;28;20233;-55
2022/11/29 01:48:55;;;;;;;26.23;14.13;;;8.00;99.90;;;;;;5036939;28;20595;-56
2022/11/29 01:51:23;;;;;;;23.83;13.80;;;8.00;99.90;;;;;;5036438;28;20263;-55
2022/11/29 01:53:50;;;;;;;21.63;13.90;;;8.00;99.90;;;;;;5021494;28;20257;-56
2022/11/29 01:56:17;;;;;;;18.67;13.10;;;8.00;99.90;;;;;;5037984;28;20242;-55
2022/11/29 01:58:44;;;;;;;22.03;13.67;;;7.90;99.90;;;;;;5039377;28;20667;-56
2022/11/29 02:01:13;;;;;;;18.73;12.13;;;7.90;99.90;;;;;;5038826;28;20212;-57
2022/11/29 02:03:40;;;;;;;22.87;11.93;;;7.80;99.90;;;;;;5039602;28;20739;-55
2022/11/29 02:06:07;;;;;;;23.07;12.80;;;7.70;99.90;;;;;;5035327;28;20589;-56
2022/11/29 02:08:39;;;;;;;18.70;8.37;;;7.30;99.90;;;;;;5036720;28;20568;-56
2022/11/29 02:11:31;;;;;;;16.43;9.00;;;6.90;99.90;;;;;;5038833;28;20692;-55
2022/11/29 02:14:07;;;;;;;16.33;8.97;;;6.80;99.90;;;;;;5037916;28;20277;-57
2022/11/29 02:16:54;;;;;;;18.10;9.30;;;6.70;99.90;;;;;;5037609;28;20248;-56
2022/11/29 02:19:41;;;;;;;16.50;9.73;;;6.70;99.90;;;;;;5056894;28;20557;-55
2022/11/29 02:22:18;;;;;;;15.73;10.23;;;6.70;99.90;;;;;;5072716;28;20207;-57
2022/11/29 02:25:06;;;;;;;15.67;10.57;;;7.00;99.90;;;;;;5061670;28;20286;-57
2022/11/29 02:27:39;;;;;;;19.73;11.33;;;7.20;99.90;;;;;;5057813;28;20197;-55
2022/11/29 02:30:24;;;;;;;17.43;10.67;;;7.30;99.90;;;;;;5053430;28;20373;-55
2022/11/29 02:32:56;;;;;;;15.50;10.40;;;7.30;99.90;;;;;;5055421;28;22253;-56
2022/11/29 02:35:47;;;;;;;17.13;11.73;;;7.30;99.90;;;;;;5060579;28;20544;-56
2022/11/29 02:38:29;;;;;;;16.47;10.73;;;7.30;99.90;;;;;;5075773;28;20242;-56
2022/11/29 02:41:14;;;;;;;16.67;10.43;;;7.30;99.90;;;;;;5061243;28;20217;-56
2022/11/29 02:44:12;;;;;;;15.03;11.00;;;7.30;99.90;;;;;;5061597;28;20563;-55
2022/11/29 02:46:44;;;;;;;13.83;10.97;;;7.40;99.90;;;;;;5062173;28;20274;-55
2022/11/29 02:49:25;;;;;;;17.53;11.07;;;7.40;99.90;;;;;;5058896;28;20615;-55
2022/11/29 02:52:06;;;;;;;17.60;10.47;;;7.20;99.90;;;;;;5061857;28;20693;-56
2022/11/29 02:55:03;;;;;;;15.47;11.80;;;7.00;99.90;;;;;;5060829;28;20250;-55
2022/11/29 02:57:41;;;;;;;15.40;11.10;;;7.00;99.90;;;;;;5061626;28;20551;-57
2022/11/29 03:00:20;;;;;;;13.67;11.13;;;6.90;99.90;;;;;;5057869;28;20269;-55
2022/11/29 03:03:08;;;;;;;17.57;11.23;;;6.70;99.90;;;;;;5061709;28;20293;-55
2022/11/29 03:05:48;;;;;;;18.57;11.77;;;6.70;99.90;;;;;;5072413;28;20211;-55
2022/11/29 03:08:42;;;;;;;14.37;11.33;;;6.80;99.90;;;;;;5059531;28;20244;-55
2022/11/29 03:11:09;;;;;;;17.07;10.97;;;6.70;99.90;;;;;;5060542;28;20232;-55
2022/11/29 03:13:55;;;;;;;16.67;11.63;;;6.50;99.90;;;;;;5059441;28;20292;-56
2022/11/29 03:16:46;;;;;;;18.03;10.70;;;6.40;99.90;;;;;;5060500;28;20235;-55
2022/11/29 03:19:21;;;;;;;16.43;10.47;;;6.30;99.90;;;;;;5036841;28;20803;-55
2022/11/29 03:22:05;;;;;;;24.40;11.30;;;6.10;99.90;;;;;;5019918;28;20283;-60
2022/11/29 03:25:11;;;;;;;17.73;11.47;;;6.10;99.90;;;;;;5039121;28;20211;-55
2022/11/29 03:27:44;;;;;;;20.77;11.70;;;6.00;99.90;;;;;;5036886;28;20671;-54
2022/11/29 03:30:13;;;;;;;23.43;11.40;;;6.00;99.90;;;;;;5037394;28;20194;-56
2022/11/29 03:32:55;;;;;;;20.17;11.70;;;6.10;99.90;;;;;;5037514;28;20201;-56
2022/11/29 03:35:45;;;;;;;22.93;11.83;;;6.20;99.90;;;;;;5032917;28;20238;-57
2022/11/29 03:38:31;;;;;;;16.83;11.73;;;6.40;99.90;;;;;;5031271;28;20672;-55
2022/11/29 03:41:22;;;;;;;20.20;11.80;;;6.50;99.90;;;;;;5033936;28;20520;-55
2022/11/29 03:44:10;;;;;;;16.23;11.57;;;6.50;99.90;;;;;;5038496;28;20633;-55
2022/11/29 03:46:59;;;;;;;22.30;12.00;;;6.60;99.90;;;;;;5036386;28;20225;-56
2022/11/29 03:49:41;;;;;;;18.47;12.40;;;6.70;99.90;;;;;;5033998;28;20201;-55
2022/11/29 03:52:25;;;;;;;16.07;11.13;;;6.80;99.90;;;;;;5037882;28;20200;-55
2022/11/29 03:55:17;;;;;;;17.63;12.27;;;6.70;99.90;;;;;;5038197;28;20263;-55
2022/11/29 03:58:04;;;;;;;20.20;12.00;;;6.80;99.90;;;;;;5035454;28;20310;-60
2022/11/29 04:01:10;;;;;;;17.27;11.23;;;6.60;99.90;;;;;;5037803;28;20249;-55
2022/11/29 04:03:49;;;;;;;23.30;11.63;;;6.60;99.90;;;;;;5037244;28;20576;-56
2022/11/29 04:06:53;;;;;;;22.40;11.37;;;6.50;99.90;;;;;;5036539;28;20204;-55
2022/11/29 04:09:26;;;;;;;25.97;12.07;;;6.40;99.90;;;;;;5036258;28;20401;-55
2022/11/29 04:12:18;;;;;;;19.50;11.20;;;6.40;99.90;;;;;;5037448;28;20792;-55
2022/11/29 04:15:26;;;;;;;22.33;11.30;;;6.50;99.90;;;;;;5039321;28;20253;-55
2022/11/29 04:18:46;;;;;;;18.33;10.47;;;6.40;99.90;;;;;;5033949;28;20241;-55
2022/11/29 04:21:50;;;;;;;22.90;11.03;;;6.20;99.90;;;;;;4975207;28;20211;-56
2022/11/29 04:24:54;;;;;;;19.97;11.87;;;6.20;99.90;;;;;;4976593;28;20222;-55
2022/11/29 04:27:40;;;;;;;25.23;11.63;;;6.10;99.90;;;;;;5037304;28;20255;-55
2022/11/29 04:30:24;;;;;;;13.93;10.67;;;6.20;99.90;;;;;;5032108;28;20289;-55
2022/11/29 04:33:29;;;;;;;20.67;11.00;;;6.30;99.90;;;;;;5034210;28;20283;-57
2022/11/29 04:35:58;;;;;;;15.40;10.67;;;6.30;99.90;;;;;;5035656;28;21126;-56
2022/11/29 04:38:47;;;;;;;20.73;11.37;;;6.50;99.90;;;;;;5032414;28;20207;-56
2022/11/29 04:41:35;;;;;;;19.30;11.50;;;6.60;99.90;;;;;;5033784;28;20209;-55
2022/11/29 04:44:31;;;;;;;23.07;12.63;;;6.70;99.90;;;;;;5036942;28;21187;-55
2022/11/29 04:47:10;;;;;;;20.13;11.70;;;6.80;99.90;;;;;;5033822;28;20207;-55
2022/11/29 04:49:59;;;;;;;27.67;12.17;;;6.80;99.90;;;;;;5033260;28;20316;-55
2022/11/29 04:52:49;;;;;;;23.70;12.43;;;6.80;99.90;;;;;;5035983;28;20221;-55
2022/11/29 04:55:50;;;;;;;20.20;12.07;;;6.80;99.90;;;;;;5032244;28;20223;-56
2022/11/29 04:58:40;;;;;;;23.00;11.23;;;6.80;99.90;;;;;;5020367;28;20749;-56
2022/11/29 05:01:21;;;;;;;20.00;11.20;;;6.90;99.90;;;;;;5036705;28;20207;-55
2022/11/29 05:03:55;;;;;;;24.20;11.80;;;7.00;99.90;;;;;;5038794;28;20220;-55
2022/11/29 05:06:54;;;;;;;17.27;11.07;;;7.00;99.90;;;;;;5036099;28;20617;-56
2022/11/29 05:09:29;;;;;;;26.00;10.60;;;7.00;99.90;;;;;;5037494;28;20208;-56
2022/11/29 05:12:21;;;;;;;22.10;11.57;;;6.70;99.90;;;;;;5037517;28;20254;-56
2022/11/29 05:15:14;;;;;;;25.10;11.17;;;6.70;99.90;;;;;;5033254;28;20218;-56
2022/11/29 05:18:18;;;;;;;28.83;11.40;;;6.60;99.90;;;;;;5038691;28;20599;-56
2022/11/29 05:21:08;;;;;;;31.33;11.60;;;6.40;99.90;;;;;;5035605;28;20211;-55
2022/11/29 05:24:13;;;;;;;25.60;11.87;;;6.40;99.90;;;;;;5038996;28;20524;-55
2022/11/29 05:27:11;;;;;;;23.43;11.73;;;6.40;99.90;;;;;;5004597;28;20223;-55
2022/11/29 05:29:53;;;;;;;28.37;11.20;;;6.40;99.90;;;;;;5037445;28;20293;-55
2022/11/29 05:32:44;;;;;;;15.00;10.93;;;6.40;99.90;;;;;;5017332;28;20582;-55
2022/11/29 05:35:19;;;;;;;17.00;11.17;;;6.60;99.90;;;;;;5031332;28;20207;-57
2022/11/29 05:37:52;;;;;;;26.83;11.90;;;6.50;99.90;;;;;;5034568;28;20205;-55
2022/11/29 05:40:54;;;;;;;27.33;11.97;;;6.50;99.90;;;;;;5031898;28;20197;-56
2022/11/29 05:43:48;;;;;;;21.27;11.50;;;6.70;99.90;;;;;;5014732;28;20264;-55
2022/11/29 05:46:54;;;;;;;28.50;12.23;;;6.80;99.90;;;;;;5038530;28;20344;-55
2022/11/29 05:49:58;;;;;;;25.83;12.40;;;6.60;99.90;;;;;;4975854;28;20304;-55
2022/11/29 05:52:50;;;;;;;24.40;11.97;;;6.50;99.90;;;;;;4976762;28;20209;-55
2022/11/29 05:55:43;;;;;;;20.93;11.83;;;6.90;99.90;;;;;;4976106;28;20214;-56
2022/11/29 05:59:10;;;;;;;26.00;11.40;;;6.80;99.90;;;;;;4981244;28;20266;-55
2022/11/29 06:02:02;;;;;;;20.40;12.33;;;6.60;99.90;;;;;;4908881;29;20291;-57
2022/11/29 06:04:39;;;;;;;23.20;11.93;;;6.70;99.90;;;;;;4912646;29;20220;-55
2022/11/29 06:07:30;;;;;;;20.03;11.90;;;6.70;99.90;;;;;;4907563;29;20223;-55
2022/11/29 06:10:03;;;;;;;21.40;12.23;;;6.80;99.90;;;;;;4908036;29;20216;-56
2022/11/29 06:12:34;;;;;;;18.43;11.43;;;6.90;99.90;;;;;;4908906;29;20439;-55
2022/11/29 06:15:14;;;;;;;17.43;11.73;;;6.80;99.90;;;;;;4909004;29;20246;-56
2022/11/29 06:18:08;;;;;;;21.00;12.80;;;6.70;99.90;;;;;;4903216;29;20823;-56
2022/11/29 06:20:59;;;;;;;26.27;12.33;;;6.80;99.90;;;;;;4929521;28;20585;-56
2022/11/29 06:23:35;;;;;;;24.53;12.53;;;6.80;99.90;;;;;;4933762;28;20401;-56
2022/11/29 06:26:28;;;;;;;28.73;12.93;;;6.70;99.90;;;;;;4942098;28;20597;-55
2022/11/29 06:29:19;;;;;;;23.37;12.87;;;6.80;99.90;;;;;;4940158;28;20338;-56
2022/11/29 06:31:52;;;;;;;28.53;13.03;;;6.70;99.90;;;;;;4589401;28;10001671;-55
2022/11/29 06:35:01;;;;;;;31.23;13.33;;;6.90;99.90;;;;;;4951841;28;20207;-56
2022/11/29 06:37:40;;;;;;;27.70;13.90;;;6.80;99.90;;;;;;5041816;28;20548;-56
2022/11/29 06:40:13;;;;;;;26.83;13.13;;;6.90;99.90;;;;;;5042972;28;20211;-55
2022/11/29 06:42:40;;;;;;;22.70;12.53;;;6.90;99.90;;;;;;5043796;28;20200;-57
2022/11/29 06:45:11;;;;;;;26.43;13.87;;;6.90;99.90;;;;;;5040525;28;20272;-56
2022/11/29 06:48:05;;;;;;;28.00;13.80;;;6.80;99.90;;;;;;5040200;28;20196;-56
2022/11/29 06:50:49;;;;;;;24.70;12.87;;;6.90;99.90;;;;;;5034360;28;20194;-55
2022/11/29 06:53:39;;;;;;;23.57;13.13;;;7.10;99.90;;;;;;5042654;28;20215;-56
2022/11/29 06:56:16;;;;;;;28.03;13.43;;;6.90;99.90;;;;;;5041570;28;20214;-55
2022/11/29 06:59:03;;;;;;;30.17;13.97;;;6.90;99.90;;;;;;5043964;28;20196;-56
2022/11/29 07:01:52;;;;;;;27.90;12.17;;;6.90;99.90;;;;;;5038554;28;20613;-56
2022/11/29 07:04:44;;;;;;;29.97;13.50;;;6.80;99.90;;;;;;5053370;28;20213;-56
2022/11/29 07:07:19;;;;;;;28.33;13.30;;;6.70;99.90;;;;;;5036936;28;20833;-55
2022/11/29 07:09:50;;;;;;;35.27;13.67;;;6.60;99.90;;;;;;5040163;28;20584;-56
2022/11/29 07:12:17;;;;;;;34.63;12.93;;;6.60;99.90;;;;;;5041071;28;20323;-56
2022/11/29 07:14:44;;;;;;;27.83;13.43;;;6.70;99.90;;;;;;5039001;28;20576;-56
2022/11/29 07:17:38;;;;;;;28.50;14.30;;;6.80;99.90;;;;;;5035436;28;20206;-60
2022/11/29 07:20:25;;;;;;;49.83;13.73;;;7.00;99.90;;;;;;5015632;28;21644;-57
2022/11/29 07:23:31;;;;;;;32.37;14.27;;;7.00;99.90;;;;;;5035243;28;20203;-57
2022/11/29 07:26:14;;;;;;;36.10;14.27;;;6.90;99.90;;;;;;5036826;28;20205;-56
2022/11/29 07:28:47;;;;;;;36.17;14.13;;;6.80;99.90;;;;;;5031385;28;20205;-56
2022/11/29 07:31:31;;;;;;;32.73;13.60;;;7.00;99.90;;;;;;5031527;28;20202;-56
2022/11/29 07:34:13;;;;;;;34.03;14.43;;;7.10;99.90;;;;;;5039176;28;20229;-56
2022/11/29 07:36:43;;;;;;;36.33;13.93;;;7.20;99.90;;;;;;5033527;28;20220;-56
2022/11/29 07:39:31;;;;;;;37.93;14.30;;;7.20;99.90;;;;;;5031895;28;20305;-55
2022/11/29 07:42:35;;;;;;;35.13;14.60;;;7.10;99.90;;;;;;5033417;28;20200;-55
2022/11/29 07:45:30;;;;;;;36.40;14.30;;;7.10;99.90;;;;;;5027579;28;20223;-56
2022/11/29 07:47:57;;;;;;;34.30;14.73;;;6.90;99.90;;;;;;5033397;28;20228;-55
2022/11/29 07:50:26;;;;;;;32.90;14.33;;;6.80;99.90;;;;;;5032437;28;20204;-55
2022/11/29 07:52:54;;;;;;;38.00;15.13;;;6.80;99.90;;;;;;5031940;28;20252;-55
2022/11/29 07:55:23;;;;;;;29.60;14.03;;;6.80;99.90;;;;;;5034558;28;20202;-55
2022/11/29 07:57:50;;;;;;;34.07;15.17;;;6.80;99.90;;;;;;5031712;28;20197;-55
2022/11/29 08:00:18;;;;;;;37.90;15.90;;;6.80;99.90;;;;;;5035311;28;20196;-55
2022/11/29 08:02:46;;;;;;;41.57;15.33;;;6.90;99.90;;;;;;5035101;28;20203;-55
2022/11/29 08:05:13;;;;;;;40.10;14.37;;;6.90;99.90;;;;;;5029607;28;20221;-54
2022/11/29 08:07:41;;;;;;;41.50;14.60;;;6.80;99.90;;;;;;5030203;28;20198;-56
2022/11/29 08:10:11;;;;;;;41.53;16.10;;;6.80;99.90;;;;;;5028282;28;20225;-55
2022/11/29 08:12:47;;;;;;;49.17;14.93;;;6.80;99.90;;;;;;5037172;28;20188;-55
2022/11/29 08:15:14;;;;;;;34.23;14.23;;;6.80;99.90;;;;;;5039262;28;20759;-56
2022/11/29 08:17:41;;;;;;;34.00;14.10;;;7.00;99.90;;;;;;5040912;28;20583;-55
2022/11/29 08:20:09;;;;;;;36.40;14.13;;;7.10;99.90;;;;;;5021464;28;20200;-55
2022/11/29 08:22:36;;;;;;;32.93;14.30;;;7.00;99.90;;;;;;5032622;28;20214;-55
2022/11/29 08:25:05;;;;;;;32.73;14.20;;;7.00;99.90;;;;;;5037703;28;20304;-55
2022/11/29 08:27:32;;;;;;;33.77;14.87;;;6.90;99.90;;;;;;5035309;28;20548;-55
2022/11/29 08:29:59;;;;;;;39.67;15.53;;;7.00;99.90;;;;;;5037896;28;20194;-55
2022/11/29 08:32:27;;;;;;;32.40;14.43;;;7.10;99.90;;;;;;5036773;28;20212;-55
2022/11/29 08:34:53;;;;;;;37.63;15.63;;;7.30;99.90;;;;;;5036664;28;20558;-55
2022/11/29 08:37:20;;;;;;;35.17;14.87;;;7.40;99.90;;;;;;5038103;28;20199;-55
2022/11/29 08:39:47;;;;;;;36.87;14.73;;;7.40;99.90;;;;;;5032506;28;20203;-55
2022/11/29 08:42:14;;;;;;;35.37;15.77;;;7.30;99.90;;;;;;5034045;28;20663;-55
2022/11/29 08:44:41;;;;;;;44.10;16.27;;;7.30;99.90;;;;;;5019834;28;20210;-55
2022/11/29 08:50:00;;;;;;;33.60;14.53;;;7.10;99.90;;;;;;5033937;28;20661;-55
2022/11/29 08:55:24;;;;;;;42.33;14.97;;;7.10;99.90;;;;;;5034137;28;20620;-55
2022/11/29 08:57:53;;;;;;;35.50;14.90;;;7.30;99.90;;;;;;5037755;28;20299;-56
2022/11/29 09:00:22;;;;;;;40.83;16.03;;;7.30;99.90;;;;;;5037499;28;20295;-55
2022/11/29 09:02:50;;;;;;;43.47;15.30;;;7.40;99.90;;;;;;5039003;28;20205;-55
2022/11/29 09:05:16;;;;;;;42.47;15.80;;;7.70;99.90;;;;;;5036194;28;20306;-55
2022/11/29 09:07:45;;;;;;;41.83;15.53;;;7.80;99.90;;;;;;5038033;28;20201;-55
2022/11/29 09:10:12;;;;;;;36.53;15.70;;;7.70;99.90;;;;;;5041558;28;20224;-54
2022/11/29 09:12:39;;;;;;;36.47;15.03;;;7.50;99.90;;;;;;5038031;28;20199;-55
2022/11/29 09:15:08;;;;;;;41.93;15.80;;;7.60;99.90;;;;;;5037019;28;21300;-57
2022/11/29 09:17:35;;;;;;;37.27;15.00;;;7.60;99.90;;;;;;5038204;28;20620;-61
2022/11/29 09:20:04;;;;;;;37.90;14.57;;;7.60;99.90;;;;;;5047600;28;20295;-56
2022/11/29 09:22:30;;;;;;;38.90;15.07;;;7.70;99.90;;;;;;5036305;28;20247;-56
2022/11/29 09:24:57;;;;;;;35.53;14.83;;;7.70;99.90;;;;;;5036721;28;20222;-56
2022/11/29 09:27:24;;;;;;;44.90;16.57;;;7.90;99.90;;;;;;5038508;28;20207;-56
2022/11/29 09:29:51;;;;;;;43.47;16.53;;;7.90;99.90;;;;;;5037446;28;20195;-55
2022/11/29 09:32:17;;;;;;;39.53;14.90;;;8.00;99.90;;;;;;5034584;28;20198;-60
2022/11/29 09:34:44;;;;;;;44.03;16.97;;;8.00;99.90;;;;;;5034349;28;20291;-56
2022/11/29 09:37:11;;;;;;;44.03;15.33;;;8.20;99.90;;;;;;5036559;28;20295;-56
2022/11/29 09:39:40;;;;;;;37.97;14.23;;;8.20;99.90;;;;;;5034285;28;21687;-56
2022/11/29 09:43:02;;;;;;;40.03;13.93;;;8.20;99.90;;;;;;5034492;28;20297;-56
2022/11/29 09:45:35;;;;;;;33.87;13.57;;;8.30;99.90;;;;;;4948532;28;20232;-56
2022/11/29 09:48:12;;;;;;;45.53;14.23;;;8.50;99.90;;;;;;5033774;28;20767;-56
2022/11/29 09:51:03;;;;;;;46.00;15.13;;;8.50;99.90;;;;;;5036594;28;20512;-56
2022/11/29 09:53:57;;;;;;;37.17;14.47;;;8.50;99.90;;;;;;5035349;28;20243;-56
2022/11/29 09:56:38;;;;;;;43.43;14.97;;;8.60;99.90;;;;;;5035658;28;20206;-57
2022/11/29 09:59:10;;;;;;;46.70;16.53;;;8.60;99.90;;;;;;5037221;28;20203;-57
2022/11/29 10:01:46;;;;;;;43.53;15.53;;;8.60;99.90;;;;;;5036449;28;20668;-57
2022/11/29 10:04:20;;;;;;;39.87;15.50;;;8.70;99.90;;;;;;5034043;28;20321;-56
2022/11/29 10:06:58;;;;;;;47.67;17.27;;;8.60;99.90;;;;;;5033532;28;20190;-57
2022/11/29 10:09:29;;;;;;;51.70;17.87;;;8.60;99.90;;;;;;5036028;28;20226;-57
2022/11/29 10:12:10;;;;;;;43.80;18.00;;;8.70;99.90;;;;;;5035471;28;20265;-57
2022/11/29 10:14:53;;;;;;;46.50;15.47;;;8.80;99.90;;;;;;5034827;28;20206;-58
2022/11/29 10:17:53;;;;;;;33.53;15.37;;;8.90;99.90;;;;;;5033685;28;20385;-56
2022/11/29 10:20:28;;;;;;;32.20;13.47;;;8.80;99.90;;;;;;5033043;28;20542;-56
2022/11/29 10:22:58;;;;;;;42.30;15.43;;;8.80;99.90;;;;;;5037422;28;20634;-56
2022/11/29 10:25:49;;;;;;;40.30;15.80;;;8.80;99.90;;;;;;5020400;28;20234;-57
2022/11/29 10:28:19;;;;;;;44.90;14.87;;;8.90;99.90;;;;;;5033677;28;20205;-57
2022/11/29 10:30:47;;;;;;;42.50;15.47;;;8.90;99.90;;;;;;5035456;28;20597;-57
2022/11/29 10:33:20;;;;;;;35.40;14.27;;;8.90;99.90;;;;;;5039048;28;20374;-56
2022/11/29 10:35:53;;;;;;;42.17;14.67;;;8.80;99.90;;;;;;5032866;28;20308;-56
2022/11/29 10:38:19;;;;;;;36.47;14.70;;;8.90;99.90;;;;;;5035452;28;20287;-57
2022/11/29 10:41:09;;;;;;;38.27;15.30;;;9.00;99.90;;;;;;5034417;28;20213;-56
2022/11/29 10:43:37;;;;;;;47.93;16.00;;;9.00;99.90;;;;;;5040716;28;20230;-57
2022/11/29 10:46:05;;;;;;;48.83;15.10;;;8.90;99.90;;;;;;5034838;28;20222;-56
2022/11/29 10:48:33;;;;;;;42.37;15.90;;;8.90;99.90;;;;;;5036541;28;20625;-56
2022/11/29 10:51:00;;;;;;;41.53;17.23;;;8.90;99.90;;;;;;5038329;28;20208;-56
2022/11/29 10:53:36;;;;;;;40.27;16.47;;;8.90;99.90;;;;;;5035351;28;20220;-56
2022/11/29 10:56:21;;;;;;;44.40;17.47;;;8.90;99.90;;;;;;5037026;28;20634;-57
2022/11/29 10:59:17;;;;;;;42.57;16.87;;;8.90;99.90;;;;;;5035189;28;20565;-56
2022/11/29 11:01:44;;;;;;;33.57;14.83;;;8.90;99.90;;;;;;5038047;28;20242;-58
2022/11/29 11:04:23;;;;;;;39.83;15.50;;;8.80;99.90;;;;;;5033479;28;20211;-55
2022/11/29 11:06:55;;;;;;;47.50;16.03;;;8.90;99.90;;;;;;5039480;28;20293;-55
2022/11/29 11:09:45;;;;;;;30.60;14.23;;;8.80;99.90;;;;;;5035619;28;20668;-55
2022/11/29 11:12:17;;;;;;;33.73;13.23;;;8.90;99.90;;;;;;5039943;28;20631;-55
2022/11/29 11:14:45;;;;;;;36.13;13.03;;;8.90;99.90;;;;;;5036898;28;20235;-56
2022/11/29 11:17:21;;;;;;;37.90;14.03;;;8.90;99.90;;;;;;5038786;28;20216;-56
2022/11/29 11:19:56;;;;;;;35.37;15.23;;;8.90;99.90;;;;;;5034001;28;20739;-56
2022/11/29 11:22:24;;;;;;;38.00;15.43;;;8.90;99.90;;;;;;5037564;28;20210;-55
2022/11/29 11:25:04;;;;;;;33.03;13.90;;;8.80;99.90;;;;;;5037395;28;20217;-57
2022/11/29 11:27:40;;;;;;;35.30;13.53;;;8.80;99.90;;;;;;5037866;28;20663;-56
2022/11/29 11:30:22;;;;;;;33.83;13.60;;;8.70;99.90;;;;;;5036169;28;20208;-56
2022/11/29 11:33:07;;;;;;;34.43;14.03;;;8.70;99.90;;;;;;5038578;28;20208;-55
2022/11/29 11:35:36;;;;;;;37.13;15.07;;;8.70;99.90;;;;;;5032213;28;20211;-56
2022/11/29 11:38:02;;;;;;;32.90;14.93;;;8.70;99.90;;;;;;5035834;28;20293;-55
2022/11/29 11:40:30;;;;;;;36.10;15.30;;;8.50;99.90;;;;;;5049855;28;20201;-55
2022/11/29 11:43:00;;;;;;;42.50;16.63;;;8.70;99.90;;;;;;5039601;28;20862;-55
2022/11/29 11:45:35;;;;;;;33.53;14.77;;;8.80;99.90;;;;;;5032670;28;20220;-55
2022/11/29 11:48:14;;;;;;;36.43;14.40;;;8.80;99.90;;;;;;5037570;28;20209;-55
2022/11/29 11:50:51;;;;;;;33.10;13.93;;;8.80;99.90;;;;;;5038117;28;20544;-55
2022/11/29 11:53:20;;;;;;;34.57;15.10;;;8.90;99.90;;;;;;5038682;28;20199;-56
2022/11/29 11:55:59;;;;;;;38.80;14.50;;;8.90;99.90;;;;;;5034978;28;20193;-55
2022/11/29 11:58:31;;;;;;;37.57;13.97;;;8.90;99.90;;;;;;5037685;28;20647;-55
2022/11/29 12:01:11;;;;;;;41.53;13.90;;;8.80;99.90;;;;;;5034690;28;20289;-55
2022/11/29 12:04:04;;;;;;;36.93;14.77;;;8.80;99.90;;;;;;5037056;28;20261;-56
2022/11/29 12:06:51;;;;;;;38.07;14.43;;;8.80;99.90;;;;;;5036644;28;20317;-55
2022/11/29 12:09:40;;;;;;;34.60;14.70;;;8.90;99.90;;;;;;5036794;28;20226;-55
2022/11/29 12:12:14;;;;;;;36.23;14.13;;;8.80;99.90;;;;;;5040974;28;20713;-56
2022/11/29 12:15:06;;;;;;;31.37;14.07;;;8.80;99.90;;;;;;5039423;28;20237;-55
2022/11/29 12:17:55;;;;;;;36.53;15.00;;;8.70;99.90;;;;;;5040349;28;20617;-55
2022/11/29 12:20:27;;;;;;;37.73;14.00;;;8.80;99.90;;;;;;5038817;28;20203;-56
2022/11/29 12:23:12;;;;;;;30.23;12.80;;;8.90;99.90;;;;;;5038816;28;20231;-55
2022/11/29 12:26:10;;;;;;;32.77;14.40;;;8.90;99.90;;;;;;5038712;28;20307;-55
2022/11/29 12:28:46;;;;;;;30.27;12.53;;;9.00;99.90;;;;;;5039986;28;20534;-56
2022/11/29 12:31:40;;;;;;;40.13;15.23;;;9.00;99.90;;;;;;5039558;28;20210;-55
2022/11/29 12:34:57;;;;;;;37.00;14.00;;;9.00;99.90;;;;;;5036071;28;20284;-56
2022/11/29 12:37:50;;;;;;;42.90;15.53;;;9.00;99.90;;;;;;5032668;28;20215;-56
2022/11/29 12:40:17;;;;;;;37.93;14.07;;;9.10;99.90;;;;;;5036776;28;20219;-56
2022/11/29 12:42:58;;;;;;;37.27;15.10;;;9.20;99.90;;;;;;5038371;28;20655;-55
2022/11/29 12:45:47;;;;;;;39.87;15.83;;;9.10;99.90;;;;;;5037559;28;20219;-56
2022/11/29 12:48:20;;;;;;;35.67;15.13;;;9.20;99.90;;;;;;5039949;28;20202;-55
2022/11/29 12:50:51;;;;;;;39.93;15.37;;;9.20;99.90;;;;;;5038824;28;20214;-54
2022/11/29 12:53:59;;;;;;;38.80;15.33;;;9.10;99.90;;;;;;5038677;28;20239;-56
2022/11/29 12:56:31;;;;;;;29.20;13.77;;;9.00;99.90;;;;;;5013326;28;20659;-56
2022/11/29 12:59:04;;;;;;;36.17;15.73;;;8.90;99.90;;;;;;5033095;28;20296;-56
2022/11/29 13:01:56;;;;;;;40.33;15.90;;;8.90;99.90;;;;;;5031976;28;20734;-55
2022/11/29 13:04:48;;;;;;;37.93;14.77;;;9.00;99.90;;;;;;5032156;28;20264;-55
2022/11/29 13:07:30;;;;;;;33.53;14.87;;;9.00;99.90;;;;;;5035101;28;20246;-57
2022/11/29 13:10:17;;;;;;;39.97;14.43;;;8.80;99.90;;;;;;5031841;28;20194;-55
2022/11/29 13:13:16;;;;;;;31.53;13.33;;;9.00;99.90;;;;;;5032525;28;20214;-56
2022/11/29 13:15:48;;;;;;;31.57;13.77;;;8.90;99.90;;;;;;5034825;28;20301;-56
2022/11/29 13:18:39;;;;;;;39.73;15.83;;;9.00;99.90;;;;;;5033204;28;20232;-56
2022/11/29 13:21:18;;;;;;;36.50;15.30;;;9.10;99.90;;;;;;5034032;28;20242;-55
2022/11/29 13:23:58;;;;;;;29.43;13.97;;;9.10;99.90;;;;;;5015630;28;20207;-56
2022/11/29 13:26:42;;;;;;;37.60;14.30;;;9.20;99.90;;;;;;5047854;28;21149;-55
2022/11/29 13:29:15;;;;;;;39.00;14.47;;;9.30;99.90;;;;;;5035913;28;20210;-61
2022/11/29 13:31:44;;;;;;;38.97;14.43;;;9.30;99.90;;;;;;5034076;28;20193;-56
2022/11/29 13:34:20;;;;;;;36.17;14.87;;;9.20;99.90;;;;;;5033277;28;20201;-55
2022/11/29 13:37:21;;;;;;;33.50;14.93;;;9.10;99.90;;;;;;5035649;28;20298;-56
2022/11/29 13:39:59;;;;;;;43.17;14.43;;;9.10;99.90;;;;;;5033179;28;20239;-60
2022/11/29 13:43:02;;;;;;;39.67;14.33;;;9.10;99.90;;;;;;5035988;28;20714;-55
2022/11/29 13:45:44;;;;;;;32.67;12.87;;;9.20;99.90;;;;;;5033997;28;20239;-55
2022/11/29 13:48:51;;;;;;;37.53;14.07;;;9.30;99.90;;;;;;5034246;28;20204;-57